Time;durP1;ratioP1;P1;durP2;ratioP2;P2;SDS_P1;SDS_P2;PMS_P1;PMS_P2;Temp;Humidity;BMP_temperature;BMP_pressure;BME280_temperature;BME280_humidity;BME280_pressure;Samples;Min_cycle;Max_cycle;Signal;HPM_P1;HPM_P2
2022/04/21 00:00:09;;;;;;;18.10;10.05;;;3.70;81.00;;;;;;5231072;28;20045;-75
2022/04/21 00:02:42;;;;;;;18.10;9.48;;;3.70;81.10;;;;;;5219858;28;20049;-74
2022/04/21 00:05:15;;;;;;;19.55;9.48;;;3.70;81.40;;;;;;5221775;28;20064;-73
2022/04/21 00:07:48;;;;;;;15.50;9.57;;;3.70;81.10;;;;;;5216626;28;20044;-74
2022/04/21 00:10:22;;;;;;;13.82;8.77;;;3.80;80.60;;;;;;5220527;28;20052;-75
2022/04/21 00:12:55;;;;;;;17.83;9.82;;;3.80;80.40;;;;;;5218477;28;20044;-75
2022/04/21 00:15:27;;;;;;;20.58;10.00;;;3.70;80.40;;;;;;5219759;28;20059;-75
2022/04/21 00:18:01;;;;;;;18.90;9.15;;;3.60;81.10;;;;;;5219172;28;20044;-75
2022/04/21 00:20:34;;;;;;;16.98;10.25;;;3.60;81.40;;;;;;5218898;28;20045;-74
2022/04/21 00:26:01;;;;;;;14.00;8.95;;;3.60;81.30;;;;;;5218469;28;20049;-72
2022/04/21 00:28:34;;;;;;;17.33;9.32;;;3.50;81.60;;;;;;5228245;28;20060;-74
2022/04/21 00:31:06;;;;;;;16.90;10.05;;;3.60;81.80;;;;;;5221734;28;20063;-74
2022/04/21 00:33:39;;;;;;;16.02;9.88;;;3.60;81.70;;;;;;5219547;28;20405;-73
2022/04/21 00:36:11;;;;;;;15.70;9.70;;;3.60;82.00;;;;;;5219136;28;20036;-73
2022/04/21 00:38:44;;;;;;;14.05;9.07;;;3.60;82.00;;;;;;5217572;28;20507;-74
2022/04/21 00:41:16;;;;;;;17.85;9.77;;;3.60;82.50;;;;;;5218995;28;20044;-74
2022/04/21 00:43:48;;;;;;;13.40;8.98;;;3.60;82.50;;;;;;5218397;28;20440;-74
2022/04/21 00:46:21;;;;;;;16.65;9.10;;;3.60;82.20;;;;;;5218346;28;20040;-74
2022/04/21 00:48:55;;;;;;;19.67;10.52;;;3.60;82.00;;;;;;5224044;28;20056;-74
2022/04/21 00:51:28;;;;;;;17.67;10.75;;;3.50;82.50;;;;;;5221025;28;20080;-74
2022/04/21 00:54:00;;;;;;;19.08;10.38;;;3.30;82.90;;;;;;5217920;28;20061;-75
2022/04/21 00:56:33;;;;;;;15.52;10.38;;;3.30;83.50;;;;;;5219468;28;20044;-74
2022/04/21 00:59:07;;;;;;;18.85;10.00;;;3.30;83.80;;;;;;5209257;28;20596;-75
2022/04/21 01:04:32;;;;;;;21.35;10.15;;;3.30;84.20;;;;;;5216717;28;20639;-74
2022/04/21 01:07:08;;;;;;;22.65;11.73;;;3.20;84.40;;;;;;5217101;28;20044;-75
2022/04/21 01:09:41;;;;;;;18.40;11.18;;;3.10;85.10;;;;;;5219599;28;20037;-74
2022/04/21 01:12:15;;;;;;;19.27;10.23;;;3.10;85.60;;;;;;5217499;28;20055;-75
2022/04/21 01:14:48;;;;;;;15.10;10.07;;;3.20;85.10;;;;;;5220876;28;20052;-74
2022/04/21 01:17:31;;;;;;;16.80;9.10;;;3.20;85.10;;;;;;5216995;28;20644;-75
2022/04/21 01:20:05;;;;;;;21.35;11.35;;;3.10;86.50;;;;;;5227446;28;20049;-73
2022/04/21 01:22:37;;;;;;;16.02;10.38;;;3.00;86.20;;;;;;5217895;28;20048;-74
2022/04/21 01:25:10;;;;;;;18.38;9.70;;;3.00;86.50;;;;;;5224377;28;20063;-74
2022/04/21 01:27:43;;;;;;;22.77;11.25;;;3.10;86.10;;;;;;5222197;28;20084;-74
2022/04/21 01:30:16;;;;;;;21.27;11.02;;;3.10;86.40;;;;;;5221772;28;20635;-74
2022/04/21 01:32:49;;;;;;;17.33;10.23;;;3.00;87.20;;;;;;5221621;28;20048;-73
2022/04/21 01:35:22;;;;;;;17.27;10.65;;;2.90;86.80;;;;;;5219299;28;23583;-74
2022/04/21 01:43:37;;;;;;;20.10;10.90;;;2.80;88.10;;;;;;5222413;28;20061;-75
2022/04/21 01:46:11;;;;;;;20.67;11.20;;;2.70;89.60;;;;;;5225561;28;20521;-76
2022/04/21 01:48:43;;;;;;;20.30;11.93;;;2.60;90.10;;;;;;5224147;28;20138;-73
2022/04/21 01:51:15;;;;;;;16.67;10.38;;;2.60;90.40;;;;;;5218801;28;20052;-74
2022/04/21 01:53:48;;;;;;;23.20;11.23;;;2.50;90.90;;;;;;5221425;28;20905;-75
2022/04/21 01:56:21;;;;;;;20.15;10.38;;;2.60;91.00;;;;;;5220919;28;20044;-75
2022/04/21 01:58:53;;;;;;;19.05;10.88;;;2.60;90.80;;;;;;5223910;28;20063;-73
2022/04/21 02:01:36;;;;;;;19.30;10.38;;;2.60;91.30;;;;;;5215472;28;20033;-74
2022/04/21 02:04:08;;;;;;;20.30;10.20;;;2.50;91.80;;;;;;5216227;28;20047;-76
2022/04/21 02:06:41;;;;;;;19.33;11.27;;;2.60;91.70;;;;;;5221385;28;20059;-75
2022/04/21 02:09:14;;;;;;;17.80;10.75;;;2.60;91.90;;;;;;5216870;28;20052;-75
2022/04/21 02:11:46;;;;;;;18.48;10.52;;;2.60;91.90;;;;;;5215959;28;20056;-75
2022/04/21 02:14:19;;;;;;;18.58;10.63;;;2.60;92.30;;;;;;5226947;28;20475;-74
2022/04/21 02:16:51;;;;;;;19.45;10.40;;;2.60;92.30;;;;;;5236156;28;20426;-74
2022/04/21 02:19:24;;;;;;;17.33;10.40;;;2.50;92.80;;;;;;5219524;28;20044;-73
2022/04/21 02:21:56;;;;;;;15.75;9.93;;;2.50;93.00;;;;;;5222226;28;20040;-73
2022/04/21 02:24:29;;;;;;;19.20;10.60;;;2.50;93.10;;;;;;5223597;28;20064;-73
2022/04/21 02:27:01;;;;;;;17.38;10.45;;;2.50;93.20;;;;;;5221026;28;20363;-73
2022/04/21 02:29:34;;;;;;;15.82;10.52;;;2.40;93.90;;;;;;5201017;28;20420;-74
2022/04/21 02:32:07;;;;;;;19.20;11.13;;;2.50;93.80;;;;;;5217545;28;20049;-73
2022/04/21 02:34:41;;;;;;;18.73;10.10;;;2.50;93.50;;;;;;5217134;28;20067;-74
2022/04/21 02:37:13;;;;;;;15.80;9.60;;;2.40;93.20;;;;;;5215706;28;20304;-74
2022/04/21 02:39:46;;;;;;;17.17;10.68;;;2.50;93.10;;;;;;5216779;28;20053;-74
2022/04/21 02:42:22;;;;;;;18.08;9.40;;;2.50;93.30;;;;;;5217737;28;20037;-74
2022/04/21 02:44:54;;;;;;;19.48;10.45;;;2.50;93.30;;;;;;5217036;28;20162;-75
2022/04/21 02:47:28;;;;;;;20.05;10.32;;;2.40;93.40;;;;;;5223382;28;20615;-74
2022/04/21 02:50:00;;;;;;;17.08;10.23;;;2.30;94.10;;;;;;5253671;28;20051;-74
2022/04/21 02:52:37;;;;;;;14.38;9.70;;;2.30;94.10;;;;;;5235659;28;20051;-74
2022/04/21 02:58:02;;;;;;;18.25;10.13;;;2.30;94.20;;;;;;5215822;28;20423;-74
2022/04/21 03:00:34;;;;;;;21.38;10.50;;;2.30;94.10;;;;;;5219789;28;20055;-74
2022/04/21 03:03:07;;;;;;;16.60;10.05;;;2.30;94.50;;;;;;5226564;28;20652;-74
2022/04/21 03:05:39;;;;;;;19.48;10.80;;;2.20;94.60;;;;;;5219533;28;20049;-74
2022/04/21 03:08:12;;;;;;;18.42;10.13;;;2.20;94.80;;;;;;5225802;28;20044;-75
2022/04/21 03:10:44;;;;;;;20.55;10.77;;;2.10;95.00;;;;;;5244356;28;20049;-74
2022/04/21 03:13:17;;;;;;;18.25;11.45;;;2.10;95.20;;;;;;5238485;28;20052;-74
2022/04/21 03:15:49;;;;;;;18.50;10.77;;;2.00;95.50;;;;;;5218240;28;20401;-74
2022/04/21 03:18:22;;;;;;;18.33;9.88;;;1.90;96.10;;;;;;5219608;28;20044;-73
2022/04/21 03:26:42;;;;;;;17.25;11.25;;;2.10;96.00;;;;;;5227145;28;20056;-74
2022/04/21 03:29:14;;;;;;;19.30;10.85;;;2.00;96.60;;;;;;5223516;28;20059;-74
2022/04/21 03:31:48;;;;;;;16.00;9.67;;;1.90;96.90;;;;;;5208187;28;20421;-74
2022/04/21 03:34:21;;;;;;;17.05;9.48;;;1.90;96.50;;;;;;5224441;28;20055;-73
2022/04/21 03:36:53;;;;;;;17.23;10.65;;;2.00;96.90;;;;;;5223346;28;20460;-73
2022/04/21 03:39:26;;;;;;;18.77;9.90;;;2.00;96.80;;;;;;5221859;28;20068;-74
2022/04/21 03:41:58;;;;;;;17.52;10.45;;;2.00;96.60;;;;;;5220744;28;20041;-74
2022/04/21 03:44:31;;;;;;;18.33;10.35;;;2.10;96.40;;;;;;5223077;28;20296;-75
2022/04/21 03:47:04;;;;;;;17.67;10.57;;;2.10;96.40;;;;;;5209515;28;20512;-74
2022/04/21 03:49:36;;;;;;;18.70;10.53;;;2.10;96.50;;;;;;5223251;28;20060;-74
2022/04/21 03:52:12;;;;;;;19.70;9.80;;;2.10;96.70;;;;;;5221372;28;20292;-74
2022/04/21 03:54:45;;;;;;;20.02;11.65;;;2.10;96.70;;;;;;5222096;28;20048;-73
2022/04/21 03:57:17;;;;;;;19.60;11.53;;;2.00;96.40;;;;;;5220689;28;20071;-74
2022/04/21 03:59:50;;;;;;;14.60;10.00;;;1.90;96.60;;;;;;5222125;28;20041;-74
2022/04/21 04:02:23;;;;;;;16.60;10.60;;;1.90;97.40;;;;;;5216959;28;20049;-74
2022/04/21 04:04:56;;;;;;;19.90;11.32;;;1.80;97.80;;;;;;5221473;28;20037;-74
2022/04/21 04:13:10;;;;;;;19.42;10.30;;;2.00;97.30;;;;;;5234140;28;20064;-73
2022/04/21 04:15:47;;;;;;;17.15;10.23;;;2.00;97.30;;;;;;5201586;28;20067;-74
2022/04/21 04:18:20;;;;;;;16.40;10.40;;;2.10;97.30;;;;;;5219594;28;20053;-75
2022/04/21 04:20:52;;;;;;;17.52;10.65;;;2.10;97.30;;;;;;5221269;28;20044;-74
2022/04/21 04:23:25;;;;;;;21.30;10.52;;;2.10;97.90;;;;;;5203253;28;20052;-74
2022/04/21 04:25:57;;;;;;;17.67;10.50;;;2.10;98.80;;;;;;5215736;28;20045;-75
2022/04/21 04:28:31;;;;;;;17.90;10.88;;;2.20;98.60;;;;;;5221060;28;20045;-74
2022/04/21 04:31:04;;;;;;;19.95;11.02;;;2.20;98.70;;;;;;5220870;28;20064;-74
2022/04/21 04:33:36;;;;;;;16.95;11.20;;;2.30;98.50;;;;;;5223326;28;20040;-73
2022/04/21 04:36:13;;;;;;;18.27;11.02;;;2.30;98.60;;;;;;5219429;28;20158;-74
2022/04/21 04:38:48;;;;;;;16.80;10.15;;;2.40;98.60;;;;;;5223914;28;20048;-74
2022/04/21 04:44:12;;;;;;;17.30;10.15;;;2.50;97.50;;;;;;5221204;28;20041;-74
2022/04/21 04:46:44;;;;;;;16.20;10.57;;;2.60;97.30;;;;;;5221336;28;20135;-74
2022/04/21 04:49:17;;;;;;;15.38;9.82;;;2.70;97.20;;;;;;5219141;28;20053;-74
2022/04/21 04:51:50;;;;;;;17.75;10.88;;;2.70;97.00;;;;;;5218362;28;20052;-74
2022/04/21 04:54:23;;;;;;;19.65;10.00;;;2.70;97.00;;;;;;5222383;28;20063;-74
2022/04/21 04:56:56;;;;;;;18.70;11.02;;;2.80;97.20;;;;;;5218419;28;20044;-74
2022/04/21 04:59:29;;;;;;;17.70;9.55;;;2.90;96.90;;;;;;5222249;28;20040;-74
2022/04/21 05:02:02;;;;;;;16.70;10.27;;;2.90;96.80;;;;;;5220268;28;20049;-74
2022/04/21 05:04:35;;;;;;;15.37;9.73;;;2.90;96.40;;;;;;5221589;28;20045;-75
2022/04/21 05:07:07;;;;;;;17.58;9.50;;;2.90;96.40;;;;;;5221174;28;20052;-74
2022/04/21 05:09:40;;;;;;;19.23;11.13;;;3.00;96.50;;;;;;5224733;28;20182;-74
2022/04/21 05:12:13;;;;;;;22.15;10.77;;;3.00;96.60;;;;;;5220217;28;20052;-75
2022/04/21 05:14:46;;;;;;;17.93;10.47;;;3.10;96.50;;;;;;5221781;28;20049;-74
2022/04/21 05:17:18;;;;;;;17.15;11.30;;;3.10;96.40;;;;;;5226876;28;20310;-74
2022/04/21 05:20:10;;;;;;;15.30;10.40;;;3.20;96.50;;;;;;5222119;28;20103;-74
2022/04/21 05:22:47;;;;;;;17.35;11.10;;;3.30;97.00;;;;;;5223924;28;20063;-74
2022/04/21 05:25:20;;;;;;;18.25;10.77;;;3.30;97.10;;;;;;5219467;28;20033;-74
2022/04/21 05:27:53;;;;;;;18.53;10.30;;;3.40;96.90;;;;;;5220129;28;20067;-74
2022/04/21 05:33:27;;;;;;;16.38;10.25;;;3.60;96.60;;;;;;5217719;28;20354;-73
2022/04/21 05:36:00;;;;;;;20.60;10.73;;;3.70;97.50;;;;;;5217297;28;20053;-73
2022/04/21 05:38:33;;;;;;;19.30;10.73;;;3.80;95.40;;;;;;5221515;28;20040;-73
2022/04/21 05:41:06;;;;;;;18.60;10.80;;;3.80;95.20;;;;;;5221726;28;20645;-74
2022/04/21 05:43:40;;;;;;;19.65;10.00;;;3.90;95.20;;;;;;5216939;28;20053;-74
2022/04/21 05:46:15;;;;;;;18.92;10.77;;;4.00;95.40;;;;;;5219577;28;20045;-74
2022/04/21 05:48:47;;;;;;;17.13;10.63;;;4.10;94.70;;;;;;5216651;28;20052;-74
2022/04/21 05:51:21;;;;;;;16.83;11.15;;;4.20;94.50;;;;;;5217747;28;20416;-74
2022/04/21 05:53:56;;;;;;;19.33;12.00;;;4.30;93.90;;;;;;5219459;28;20041;-74
2022/04/21 05:56:29;;;;;;;21.73;12.07;;;4.40;93.70;;;;;;5220837;28;20056;-74
2022/04/21 05:59:03;;;;;;;17.38;11.40;;;4.50;93.60;;;;;;5210907;28;20053;-74
2022/04/21 06:01:36;;;;;;;19.85;11.90;;;4.60;93.40;;;;;;5220341;28;20048;-74
2022/04/21 06:04:09;;;;;;;19.92;11.52;;;4.70;93.50;;;;;;5217149;28;20052;-73
2022/04/21 06:06:41;;;;;;;17.67;11.85;;;4.80;93.20;;;;;;5221844;28;20044;-73
2022/04/21 06:09:13;;;;;;;21.80;12.38;;;5.00;92.50;;;;;;5202151;28;20041;-74
2022/04/21 06:11:46;;;;;;;23.88;13.52;;;5.20;92.40;;;;;;5221263;28;20480;-74
2022/04/21 06:14:19;;;;;;;24.60;14.25;;;5.40;91.10;;;;;;5220638;28;20037;-74
2022/04/21 06:16:51;;;;;;;24.00;14.38;;;5.50;90.60;;;;;;5223903;28;20381;-73
2022/04/21 06:19:24;;;;;;;21.70;13.70;;;5.80;90.40;;;;;;5219761;28;20048;-75
2022/04/21 06:21:56;;;;;;;22.55;14.75;;;5.90;90.20;;;;;;5215788;28;20045;-74
2022/04/21 06:24:31;;;;;;;24.00;14.60;;;6.00;89.20;;;;;;5220475;28;20045;-76
2022/04/21 06:27:04;;;;;;;24.02;14.43;;;6.20;88.10;;;;;;5214338;28;20045;-74
2022/04/21 06:29:36;;;;;;;24.77;14.77;;;6.30;86.90;;;;;;5217528;28;20049;-74
2022/04/21 06:32:09;;;;;;;23.58;14.20;;;6.40;86.40;;;;;;5220500;28;20048;-74
2022/04/21 06:34:41;;;;;;;24.25;14.65;;;6.50;85.80;;;;;;5220486;28;20056;-74
2022/04/21 06:37:14;;;;;;;21.15;14.40;;;6.60;85.70;;;;;;5221033;28;20048;-75
2022/04/21 06:39:52;;;;;;;23.70;15.70;;;6.70;85.30;;;;;;5216547;28;20056;-73
2022/04/21 06:42:24;;;;;;;25.05;15.55;;;6.80;85.40;;;;;;5217484;28;20052;-74
2022/04/21 06:48:04;;;;;;;26.58;15.85;;;6.90;84.60;;;;;;5215432;28;20048;-74
2022/04/21 06:50:38;;;;;;;25.33;15.68;;;6.90;84.30;;;;;;5218144;28;20082;-74
2022/04/21 06:53:11;;;;;;;25.90;16.38;;;7.00;83.70;;;;;;5228209;28;20956;-75
2022/04/21 06:55:43;;;;;;;22.08;15.10;;;7.00;83.20;;;;;;5220580;28;20045;-74
2022/04/21 06:58:16;;;;;;;21.67;14.23;;;7.10;83.10;;;;;;5216221;28;20064;-76
2022/04/21 07:00:48;;;;;;;25.63;15.07;;;7.20;82.90;;;;;;5219274;28;20589;-74
2022/04/21 07:03:21;;;;;;;23.27;14.98;;;7.40;82.40;;;;;;5223991;28;20041;-76
2022/04/21 07:05:55;;;;;;;27.33;15.02;;;7.40;82.00;;;;;;5225707;28;20107;-76
2022/04/21 07:08:33;;;;;;;24.17;14.38;;;7.50;81.40;;;;;;5209095;28;20045;-76
2022/04/21 07:11:08;;;;;;;26.27;14.60;;;7.70;80.90;;;;;;5190653;28;20645;-76
2022/04/21 07:13:41;;;;;;;20.90;13.35;;;7.80;79.80;;;;;;5221597;28;20413;-76
2022/04/21 07:16:13;;;;;;;23.40;13.98;;;8.00;77.60;;;;;;5222107;28;20057;-76
2022/04/21 07:18:46;;;;;;;23.27;13.73;;;8.20;76.60;;;;;;5205668;28;20398;-76
2022/04/21 07:21:21;;;;;;;22.83;14.35;;;8.30;75.60;;;;;;5222286;28;20535;-76
2022/04/21 07:23:54;;;;;;;20.92;13.75;;;8.40;75.80;;;;;;5210397;28;20504;-76
2022/04/21 07:26:28;;;;;;;21.35;13.57;;;8.50;75.80;;;;;;5221227;28;20052;-76
2022/04/21 07:29:04;;;;;;;23.38;13.25;;;8.80;75.50;;;;;;5220525;28;20053;-76
2022/04/21 07:31:39;;;;;;;23.95;13.35;;;9.00;74.30;;;;;;5223008;28;20057;-76
2022/04/21 07:34:11;;;;;;;20.67;12.90;;;9.10;73.50;;;;;;5229851;28;20064;-76
2022/04/21 07:36:46;;;;;;;19.00;11.70;;;9.30;73.30;;;;;;5224709;28;20057;-76
2022/04/21 07:39:19;;;;;;;22.13;11.68;;;9.50;72.80;;;;;;5220481;28;20048;-76
2022/04/21 07:41:56;;;;;;;18.52;12.15;;;9.60;71.90;;;;;;5221262;28;20049;-76
2022/04/21 07:44:30;;;;;;;16.75;11.80;;;9.70;71.70;;;;;;5211241;28;20041;-75
2022/04/21 07:47:09;;;;;;;17.33;10.88;;;9.60;70.90;;;;;;5191061;28;20052;-76
2022/04/21 07:49:46;;;;;;;17.30;11.00;;;9.60;70.90;;;;;;5213945;28;20045;-76
2022/04/21 07:55:17;;;;;;;19.13;11.45;;;10.00;69.50;;;;;;5207763;28;20056;-76
2022/04/21 07:57:52;;;;;;;17.27;10.95;;;10.00;68.70;;;;;;5219430;28;20049;-76
2022/04/21 08:00:25;;;;;;;19.10;11.80;;;10.20;69.00;;;;;;5224478;28;20472;-75
2022/04/21 08:02:57;;;;;;;22.45;11.70;;;10.20;68.60;;;;;;5225526;28;20052;-76
2022/04/21 08:05:30;;;;;;;20.17;11.02;;;10.30;68.80;;;;;;5234061;28;20148;-76
2022/04/21 08:08:03;;;;;;;15.40;10.68;;;10.40;68.50;;;;;;5227385;28;20044;-76
2022/04/21 08:10:35;;;;;;;19.98;11.23;;;10.70;67.40;;;;;;5220840;28;20049;-75
2022/04/21 08:13:08;;;;;;;16.00;10.65;;;10.80;67.10;;;;;;5223334;28;20655;-76
2022/04/21 08:15:41;;;;;;;18.17;10.40;;;10.90;66.80;;;;;;5217663;28;20045;-77
2022/04/21 08:18:13;;;;;;;16.27;10.98;;;10.90;67.00;;;;;;5237344;28;21115;-76
2022/04/21 08:20:53;;;;;;;20.33;11.10;;;11.00;65.80;;;;;;5224999;28;20072;-75
2022/04/21 08:23:25;;;;;;;23.52;12.48;;;11.20;66.30;;;;;;5239832;28;20048;-78
2022/04/21 08:32:33;;;;;;;18.00;10.10;;;11.20;65.60;;;;;;5220016;28;20076;-75
2022/04/21 08:34:57;;;;;;;15.95;10.57;;;11.50;61.90;;;;;;5217095;28;20059;-76
2022/04/21 08:37:33;;;;;;;16.40;9.85;;;11.70;62.40;;;;;;5221760;28;20072;-75
2022/04/21 08:40:07;;;;;;;14.77;9.52;;;11.70;61.10;;;;;;5223936;28;20159;-75
2022/04/21 08:42:40;;;;;;;17.08;10.30;;;11.80;61.00;;;;;;5218898;28;20049;-76
2022/04/21 08:45:13;;;;;;;18.90;9.77;;;11.90;60.80;;;;;;5223021;28;20044;-76
2022/04/21 08:47:48;;;;;;;16.85;10.57;;;11.90;60.20;;;;;;5219637;28;20079;-76
2022/04/21 08:50:21;;;;;;;18.88;10.63;;;12.00;60.20;;;;;;5222495;28;20049;-77
2022/04/21 08:52:54;;;;;;;16.75;9.80;;;12.00;60.40;;;;;;5218842;28;20049;-74
2022/04/21 08:55:27;;;;;;;21.15;10.80;;;12.10;60.00;;;;;;5218535;28;20571;-77
2022/04/21 08:58:00;;;;;;;19.90;10.63;;;12.10;60.30;;;;;;5223094;28;20416;-76
2022/04/21 09:00:33;;;;;;;15.30;10.30;;;12.00;59.40;;;;;;5224352;28;20045;-77
2022/04/21 09:03:07;;;;;;;17.67;10.10;;;12.00;60.00;;;;;;5224358;28;20056;-77
2022/04/21 09:05:40;;;;;;;16.65;10.60;;;12.10;60.40;;;;;;5224461;28;20045;-76
2022/04/21 09:08:26;;;;;;;16.95;11.35;;;12.20;60.50;;;;;;5216604;28;20155;-77
2022/04/21 09:11:15;;;;;;;20.23;11.30;;;12.30;61.20;;;;;;5216261;28;20053;-75
2022/04/21 09:13:47;;;;;;;16.55;10.93;;;12.20;61.50;;;;;;5228300;28;20048;-76
2022/04/21 09:16:33;;;;;;;17.83;10.80;;;12.20;60.90;;;;;;5216521;28;20543;-76
2022/04/21 09:19:06;;;;;;;19.63;10.45;;;12.30;61.00;;;;;;5224014;28;20041;-76
2022/04/21 09:21:40;;;;;;;15.65;9.85;;;12.30;60.30;;;;;;5218667;28;20060;-76
2022/04/21 09:24:23;;;;;;;17.75;10.77;;;12.40;60.60;;;;;;5217777;28;20049;-76
2022/04/21 09:26:57;;;;;;;21.27;11.02;;;12.40;59.80;;;;;;5222458;28;20053;-76
2022/04/21 09:29:32;;;;;;;;;;;12.40;60.90;;;;;;5217367;28;20056;-75
2022/04/21 09:32:05;;;;;;;14.30;9.27;;;12.50;60.90;;;;;;5215342;28;19925;-75
2022/04/21 09:34:40;;;;;;;15.48;9.98;;;12.60;61.10;;;;;;5217930;28;20399;-74
2022/04/21 09:37:17;;;;;;;20.13;10.63;;;12.80;60.60;;;;;;5225424;28;20040;-77
2022/04/21 09:39:50;;;;;;;18.95;12.10;;;12.80;59.30;;;;;;5219671;28;20037;-75
2022/04/21 09:42:27;;;;;;;17.55;10.57;;;12.80;60.00;;;;;;5221785;28;20048;-75
2022/04/21 09:48:01;;;;;;;19.10;10.52;;;12.90;58.90;;;;;;5219408;28;20045;-75
2022/04/21 09:50:39;;;;;;;14.70;9.95;;;12.80;59.50;;;;;;5220257;28;20048;-75
2022/04/21 09:53:11;;;;;;;17.15;11.00;;;12.80;60.20;;;;;;5219615;28;20582;-76
2022/04/21 09:55:44;;;;;;;17.00;11.60;;;12.90;59.60;;;;;;5219484;28;20091;-75
2022/04/21 09:58:17;;;;;;;15.55;10.07;;;13.00;59.90;;;;;;5218576;28;20457;-76
2022/04/21 10:00:50;;;;;;;21.88;11.30;;;13.10;59.80;;;;;;5221650;28;20073;-75
2022/04/21 10:03:22;;;;;;;15.52;10.48;;;13.10;59.80;;;;;;5222160;28;20040;-76
2022/04/21 10:05:55;;;;;;;19.10;10.95;;;13.20;59.60;;;;;;5218525;28;20053;-76
2022/04/21 10:08:29;;;;;;;17.23;10.23;;;13.20;59.20;;;;;;5218910;28;20045;-75
2022/04/21 10:11:02;;;;;;;15.55;10.55;;;13.40;59.90;;;;;;5215597;28;20041;-76
2022/04/21 10:13:35;;;;;;;14.80;9.23;;;13.40;58.90;;;;;;5212821;28;20045;-75
2022/04/21 10:16:07;;;;;;;16.40;10.80;;;13.40;59.50;;;;;;5220160;28;20041;-77
2022/04/21 10:18:40;;;;;;;17.05;10.95;;;13.60;59.70;;;;;;5223750;28;20048;-75
2022/04/21 10:21:28;;;;;;;15.90;11.43;;;13.70;59.60;;;;;;5216983;28;20524;-75
2022/04/21 10:24:01;;;;;;;16.48;10.80;;;13.70;58.70;;;;;;5221174;28;20048;-76
2022/04/21 10:26:37;;;;;;;16.40;10.50;;;13.80;58.60;;;;;;5219200;28;20048;-75
2022/04/21 10:29:20;;;;;;;16.02;11.23;;;13.80;58.60;;;;;;5221116;28;20041;-75
2022/04/21 10:32:05;;;;;;;18.73;11.98;;;13.70;58.40;;;;;;5222047;28;20053;-75
2022/04/21 10:34:45;;;;;;;16.88;11.70;;;13.80;58.30;;;;;;5218247;28;20060;-75
2022/04/21 10:37:20;;;;;;;17.58;10.80;;;13.80;58.70;;;;;;5219277;28;20412;-75
2022/04/21 10:40:09;;;;;;;14.27;10.18;;;13.90;58.90;;;;;;5221671;28;20512;-75
2022/04/21 10:43:04;;;;;;;15.00;10.57;;;14.00;58.00;;;;;;5222094;28;20397;-76
2022/04/21 10:45:37;;;;;;;16.50;10.18;;;14.10;57.90;;;;;;5215491;28;20076;-75
2022/04/21 10:48:14;;;;;;;16.50;11.48;;;14.30;58.40;;;;;;5220344;28;20045;-74
2022/04/21 10:50:46;;;;;;;15.98;10.75;;;14.40;57.80;;;;;;5235764;28;20052;-75
2022/04/21 10:59:14;;;;;;;20.05;10.25;;;14.60;56.00;;;;;;5218055;28;20412;-75
2022/04/21 11:01:54;;;;;;;14.65;10.45;;;14.60;57.10;;;;;;5218138;28;20059;-75
2022/04/21 11:04:27;;;;;;;20.90;10.98;;;14.80;56.10;;;;;;5217217;28;20044;-75
2022/04/21 11:07:11;;;;;;;14.48;10.85;;;15.00;55.70;;;;;;5214130;28;20056;-75
2022/04/21 11:09:47;;;;;;;18.25;11.27;;;15.30;55.60;;;;;;5214748;28;20056;-75
2022/04/21 11:12:45;;;;;;;15.00;10.90;;;15.20;54.90;;;;;;5214568;28;20067;-75
2022/04/21 11:15:32;;;;;;;18.40;10.73;;;15.60;55.20;;;;;;5222688;28;20064;-76
2022/04/21 11:18:34;;;;;;;13.25;9.70;;;16.10;53.00;;;;;;5217208;28;21330;-77
2022/04/21 11:21:50;;;;;;;16.45;10.38;;;16.40;52.50;;;;;;5211765;28;20060;-77
2022/04/21 11:24:23;;;;;;;15.13;10.63;;;16.80;51.60;;;;;;5222826;28;20045;-77
2022/04/21 11:27:02;;;;;;;15.93;10.52;;;17.20;51.70;;;;;;5222723;28;20060;-76
2022/04/21 11:29:35;;;;;;;13.82;10.15;;;17.10;50.60;;;;;;5223210;28;20048;-77
2022/04/21 11:32:08;;;;;;;17.05;9.80;;;17.20;50.60;;;;;;5227992;28;20056;-77
2022/04/21 11:34:42;;;;;;;15.55;10.00;;;17.50;51.00;;;;;;5223333;28;20129;-78
2022/04/21 11:37:17;;;;;;;14.00;8.90;;;17.90;49.60;;;;;;5198631;28;20063;-76
2022/04/21 11:39:49;;;;;;;13.48;9.18;;;18.10;49.50;;;;;;5222528;28;20045;-77
2022/04/21 11:42:27;;;;;;;11.52;8.80;;;18.40;49.50;;;;;;5220036;28;20068;-76
2022/04/21 11:45:01;;;;;;;13.38;10.55;;;18.60;47.90;;;;;;5233941;28;20036;-77
2022/04/21 11:47:33;;;;;;;14.18;10.23;;;18.30;47.70;;;;;;5229869;28;20053;-76
2022/04/21 11:50:06;;;;;;;14.80;10.63;;;18.40;48.10;;;;;;5224498;28;20067;-76
2022/04/21 11:52:39;;;;;;;14.02;9.20;;;18.40;47.90;;;;;;5222525;28;20535;-77
2022/04/21 11:55:14;;;;;;;16.17;9.98;;;18.50;48.50;;;;;;5228729;28;20049;-76
2022/04/21 11:57:49;;;;;;;15.40;9.50;;;18.50;47.90;;;;;;5215169;28;20048;-76
2022/04/21 12:06:28;;;;;;;12.00;9.45;;;18.90;47.30;;;;;;5207593;28;20051;-77
2022/04/21 12:09:00;;;;;;;13.48;9.57;;;19.20;47.40;;;;;;5221431;28;20055;-76
2022/04/21 12:11:36;;;;;;;16.35;9.85;;;19.40;46.30;;;;;;5219706;28;20057;-76
2022/04/21 12:14:13;;;;;;;13.00;10.13;;;19.30;46.80;;;;;;5220611;28;20041;-75
2022/04/21 12:16:53;;;;;;;11.70;9.32;;;19.50;46.50;;;;;;5222138;28;20078;-76
2022/04/21 12:19:59;;;;;;;11.65;9.20;;;19.40;45.90;;;;;;5225101;28;20060;-76
2022/04/21 12:22:32;;;;;;;11.93;9.73;;;19.50;46.00;;;;;;5217138;28;20049;-74
2022/04/21 12:25:11;;;;;;;15.23;10.18;;;19.50;46.40;;;;;;5221356;28;20396;-75
2022/04/21 12:27:44;;;;;;;13.73;9.88;;;19.50;45.70;;;;;;5219818;28;20056;-74
2022/04/21 12:30:20;;;;;;;13.85;10.27;;;19.40;46.30;;;;;;5225067;28;20048;-74
2022/04/21 12:32:53;;;;;;;12.95;10.00;;;19.60;46.10;;;;;;5222069;28;20769;-75
2022/04/21 12:35:46;;;;;;;15.35;10.05;;;19.70;45.70;;;;;;5221628;28;20045;-75
2022/04/21 12:41:10;;;;;;;15.32;9.82;;;20.10;45.90;;;;;;5218801;28;20037;-75
2022/04/21 12:43:43;;;;;;;13.87;9.63;;;20.00;45.20;;;;;;5220400;28;20045;-76
2022/04/21 12:46:16;;;;;;;14.10;10.43;;;20.10;45.90;;;;;;5220963;28;20041;-76
2022/04/21 12:48:49;;;;;;;14.07;10.43;;;20.40;45.00;;;;;;5224079;28;20049;-76
2022/04/21 12:51:22;;;;;;;14.10;9.40;;;20.40;44.30;;;;;;5231610;28;20044;-75
2022/04/21 12:53:57;;;;;;;13.57;9.30;;;20.30;44.90;;;;;;5203891;28;20069;-76
2022/04/21 12:56:40;;;;;;;10.98;9.00;;;20.30;44.00;;;;;;5224066;28;20049;-76
2022/04/21 12:59:13;;;;;;;10.88;9.00;;;20.40;44.50;;;;;;5209470;28;20049;-76
2022/04/21 13:01:45;;;;;;;15.57;8.73;;;20.60;44.30;;;;;;5208628;28;20568;-75
2022/04/21 13:04:22;;;;;;;10.27;9.00;;;20.80;43.80;;;;;;5224853;28;20041;-76
2022/04/21 13:06:54;;;;;;;12.77;9.15;;;20.70;43.60;;;;;;5220254;28;20037;-76
2022/04/21 13:09:34;;;;;;;10.90;9.10;;;20.60;44.30;;;;;;5219830;28;20060;-76
2022/04/21 13:12:09;;;;;;;10.30;8.98;;;20.80;43.10;;;;;;5191481;28;20053;-76
2022/04/21 13:14:43;;;;;;;10.43;8.02;;;21.20;43.50;;;;;;5212317;28;20061;-76
2022/04/21 13:17:19;;;;;;;11.63;9.13;;;21.40;43.30;;;;;;5216762;28;20060;-75
2022/04/21 13:19:51;;;;;;;12.75;8.98;;;21.40;43.00;;;;;;5220863;28;20049;-76
2022/04/21 13:22:24;;;;;;;9.70;8.15;;;21.00;42.20;;;;;;5222127;28;20626;-76
2022/04/21 13:24:57;;;;;;;13.75;9.50;;;21.00;42.80;;;;;;5219663;28;20041;-76
2022/04/21 13:27:30;;;;;;;10.13;8.00;;;21.00;42.60;;;;;;5223334;28;20048;-75
2022/04/21 13:30:03;;;;;;;13.50;9.05;;;21.30;42.80;;;;;;5224756;28;20057;-76
2022/04/21 13:35:29;;;;;;;8.68;7.70;;;21.30;42.20;;;;;;5221101;28;20416;-76
2022/04/21 13:38:02;;;;;;;11.02;8.25;;;21.30;42.70;;;;;;5219353;28;20068;-76
2022/04/21 13:40:34;;;;;;;10.20;9.03;;;21.40;42.70;;;;;;5219730;28;20037;-76
2022/04/21 13:43:07;;;;;;;14.45;8.43;;;21.50;42.50;;;;;;5220796;28;20048;-76
2022/04/21 13:46:00;;;;;;;10.07;8.05;;;21.40;43.60;;;;;;5220743;28;20501;-76
2022/04/21 13:48:36;;;;;;;7.82;6.18;;;21.80;42.70;;;;;;5212488;28;20053;-76
2022/04/21 13:51:08;;;;;;;7.72;6.28;;;21.90;40.90;;;;;;5227194;28;20041;-76
2022/04/21 13:53:41;;;;;;;9.17;6.60;;;21.80;40.60;;;;;;5221702;28;20049;-76
2022/04/21 13:56:13;;;;;;;10.02;8.20;;;21.90;40.70;;;;;;5217383;28;20045;-76
2022/04/21 13:58:47;;;;;;;10.70;8.23;;;21.80;41.80;;;;;;5223220;28;20047;-76
2022/04/21 14:01:21;;;;;;;11.23;8.75;;;21.90;41.70;;;;;;5223084;28;20059;-76
2022/04/21 14:03:54;;;;;;;10.63;8.23;;;22.00;41.70;;;;;;5220835;28;20638;-76
2022/04/21 14:06:27;;;;;;;11.20;7.50;;;21.90;42.20;;;;;;5220413;28;20048;-76
2022/04/21 14:09:07;;;;;;;11.65;6.60;;;21.90;41.50;;;;;;5211934;28;20049;-77
2022/04/21 14:11:40;;;;;;;7.18;6.22;;;22.10;40.30;;;;;;5196999;28;20056;-76
2022/04/21 14:14:16;;;;;;;11.68;8.13;;;21.80;39.60;;;;;;5200733;28;20040;-76
2022/04/21 14:16:49;;;;;;;9.18;7.85;;;21.40;41.40;;;;;;5214518;28;20064;-76